sensor_id;sensor_type;location;lat;lon;timestamp;temperature;humidity
84090;SHT35;74178;52.136;5.424;2024-03-17T00:00:23;4.83;81.53
84090;SHT35;74178;52.136;5.424;2024-03-17T00:02:53;4.85;81.79
84090;SHT35;74178;52.136;5.424;2024-03-17T00:05:24;4.87;81.73
84090;SHT35;74178;52.136;5.424;2024-03-17T00:07:54;4.88;81.57
84090;SHT35;74178;52.136;5.424;2024-03-17T00:10:25;4.89;81.48
84090;SHT35;74178;52.136;5.424;2024-03-17T00:12:55;4.90;81.26
84090;SHT35;74178;52.136;5.424;2024-03-17T00:15:25;4.90;81.23
84090;SHT35;74178;52.136;5.424;2024-03-17T00:17:56;4.91;80.79
84090;SHT35;74178;52.136;5.424;2024-03-17T00:20:26;4.92;81.12
84090;SHT35;74178;52.136;5.424;2024-03-17T00:22:58;4.92;81.37
84090;SHT35;74178;52.136;5.424;2024-03-17T00:25:28;4.92;81.38
84090;SHT35;74178;52.136;5.424;2024-03-17T00:27:59;4.93;81.04
84090;SHT35;74178;52.136;5.424;2024-03-17T00:30:29;4.94;80.63
84090;SHT35;74178;52.136;5.424;2024-03-17T00:33:00;4.94;80.41
84090;SHT35;74178;52.136;5.424;2024-03-17T00:35:30;4.95;80.86
84090;SHT35;74178;52.136;5.424;2024-03-17T00:38:01;4.95;80.92
84090;SHT35;74178;52.136;5.424;2024-03-17T00:40:38;4.94;80.90
84090;SHT35;74178;52.136;5.424;2024-03-17T00:43:09;4.94;81.09
84090;SHT35;74178;52.136;5.424;2024-03-17T00:45:39;4.94;80.79
84090;SHT35;74178;52.136;5.424;2024-03-17T00:48:09;4.94;81.12
84090;SHT35;74178;52.136;5.424;2024-03-17T00:50:39;4.94;81.30
84090;SHT35;74178;52.136;5.424;2024-03-17T00:53:12;4.94;81.44
84090;SHT35;74178;52.136;5.424;2024-03-17T00:55:42;4.95;81.70
84090;SHT35;74178;52.136;5.424;2024-03-17T00:58:13;4.96;81.30
84090;SHT35;74178;52.136;5.424;2024-03-17T01:00:43;4.97;81.22
84090;SHT35;74178;52.136;5.424;2024-03-17T01:03:16;4.98;81.63
84090;SHT35;74178;52.136;5.424;2024-03-17T01:05:46;4.99;81.60
84090;SHT35;74178;52.136;5.424;2024-03-17T01:08:20;4.99;81.53
84090;SHT35;74178;52.136;5.424;2024-03-17T01:10:50;5.00;80.72
84090;SHT35;74178;52.136;5.424;2024-03-17T01:13:20;5.02;81.40
84090;SHT35;74178;52.136;5.424;2024-03-17T01:15:53;5.04;81.82
84090;SHT35;74178;52.136;5.424;2024-03-17T01:18:24;5.05;81.80
84090;SHT35;74178;52.136;5.424;2024-03-17T01:20:54;5.07;81.29
84090;SHT35;74178;52.136;5.424;2024-03-17T01:23:24;5.10;81.54
84090;SHT35;74178;52.136;5.424;2024-03-17T01:25:54;5.11;80.93
84090;SHT35;74178;52.136;5.424;2024-03-17T01:28:24;5.13;81.26
84090;SHT35;74178;52.136;5.424;2024-03-17T01:30:54;5.14;81.63
84090;SHT35;74178;52.136;5.424;2024-03-17T01:33:25;5.16;81.01
84090;SHT35;74178;52.136;5.424;2024-03-17T01:35:55;5.17;81.28
84090;SHT35;74178;52.136;5.424;2024-03-17T01:38:25;5.19;81.35
84090;SHT35;74178;52.136;5.424;2024-03-17T01:40:55;5.21;81.44
84090;SHT35;74178;52.136;5.424;2024-03-17T01:43:26;5.23;81.40
84090;SHT35;74178;52.136;5.424;2024-03-17T01:45:59;5.24;81.13
84090;SHT35;74178;52.136;5.424;2024-03-17T01:48:30;5.25;80.89
84090;SHT35;74178;52.136;5.424;2024-03-17T01:51:02;5.26;81.06
84090;SHT35;74178;52.136;5.424;2024-03-17T01:53:32;5.26;80.70
84090;SHT35;74178;52.136;5.424;2024-03-17T01:56:04;5.27;81.04
84090;SHT35;74178;52.136;5.424;2024-03-17T01:58:34;5.28;80.98
84090;SHT35;74178;52.136;5.424;2024-03-17T02:01:06;5.29;81.07
84090;SHT35;74178;52.136;5.424;2024-03-17T02:03:36;5.29;81.15
84090;SHT35;74178;52.136;5.424;2024-03-17T02:06:07;5.29;80.75
84090;SHT35;74178;52.136;5.424;2024-03-17T02:08:50;5.30;80.97
84090;SHT35;74178;52.136;5.424;2024-03-17T02:11:33;5.30;80.96
84090;SHT35;74178;52.136;5.424;2024-03-17T02:14:03;5.31;80.96
84090;SHT35;74178;52.136;5.424;2024-03-17T02:16:35;5.33;81.13
84090;SHT35;74178;52.136;5.424;2024-03-17T02:19:06;5.36;82.30
84090;SHT35;74178;52.136;5.424;2024-03-17T02:21:36;5.40;82.64
84090;SHT35;74178;52.136;5.424;2024-03-17T02:24:08;5.45;82.44
84090;SHT35;74178;52.136;5.424;2024-03-17T02:26:38;5.50;80.42
84090;SHT35;74178;52.136;5.424;2024-03-17T02:29:08;5.55;81.56
84090;SHT35;74178;52.136;5.424;2024-03-17T02:31:39;5.61;80.66
84090;SHT35;74178;52.136;5.424;2024-03-17T02:34:09;5.66;80.45
84090;SHT35;74178;52.136;5.424;2024-03-17T02:36:39;5.72;80.19
84090;SHT35;74178;52.136;5.424;2024-03-17T02:39:09;5.77;82.33
84090;SHT35;74178;52.136;5.424;2024-03-17T02:41:58;5.83;80.80
84090;SHT35;74178;52.136;5.424;2024-03-17T02:44:32;5.87;80.86
84090;SHT35;74178;52.136;5.424;2024-03-17T02:47:04;5.90;79.86
84090;SHT35;74178;52.136;5.424;2024-03-17T02:49:37;5.93;79.50
84090;SHT35;74178;52.136;5.424;2024-03-17T02:52:11;5.97;80.68
84090;SHT35;74178;52.136;5.424;2024-03-17T02:54:42;6.01;80.26
84090;SHT35;74178;52.136;5.424;2024-03-17T02:57:12;6.04;79.74
84090;SHT35;74178;52.136;5.424;2024-03-17T02:59:42;6.07;79.70
84090;SHT35;74178;52.136;5.424;2024-03-17T03:02:14;6.11;79.51
84090;SHT35;74178;52.136;5.424;2024-03-17T03:04:44;6.15;79.01
84090;SHT35;74178;52.136;5.424;2024-03-17T03:07:14;6.18;78.87
84090;SHT35;74178;52.136;5.424;2024-03-17T03:09:44;6.20;78.74
84090;SHT35;74178;52.136;5.424;2024-03-17T03:12:15;6.23;79.34
84090;SHT35;74178;52.136;5.424;2024-03-17T03:14:45;6.25;79.10
84090;SHT35;74178;52.136;5.424;2024-03-17T03:17:15;6.27;78.87
84090;SHT35;74178;52.136;5.424;2024-03-17T03:19:46;6.30;78.97
84090;SHT35;74178;52.136;5.424;2024-03-17T03:22:16;6.32;78.52
84090;SHT35;74178;52.136;5.424;2024-03-17T03:24:52;6.34;78.65
84090;SHT35;74178;52.136;5.424;2024-03-17T03:27:22;6.36;78.33
84090;SHT35;74178;52.136;5.424;2024-03-17T03:29:52;6.38;78.55
84090;SHT35;74178;52.136;5.424;2024-03-17T03:32:24;6.41;78.43
84090;SHT35;74178;52.136;5.424;2024-03-17T03:34:54;6.44;78.53
84090;SHT35;74178;52.136;5.424;2024-03-17T03:37:24;6.49;78.48
84090;SHT35;74178;52.136;5.424;2024-03-17T03:39:54;6.52;78.13
84090;SHT35;74178;52.136;5.424;2024-03-17T03:42:24;6.56;78.17
84090;SHT35;74178;52.136;5.424;2024-03-17T03:44:55;6.59;78.17
84090;SHT35;74178;52.136;5.424;2024-03-17T03:47:25;6.63;77.82
84090;SHT35;74178;52.136;5.424;2024-03-17T03:49:55;6.67;77.86
84090;SHT35;74178;52.136;5.424;2024-03-17T03:52:26;6.69;77.65
84090;SHT35;74178;52.136;5.424;2024-03-17T03:54:57;6.72;77.81
84090;SHT35;74178;52.136;5.424;2024-03-17T03:57:27;6.74;77.47
84090;SHT35;74178;52.136;5.424;2024-03-17T03:59:59;6.75;77.44
84090;SHT35;74178;52.136;5.424;2024-03-17T04:02:33;6.77;77.49
84090;SHT35;74178;52.136;5.424;2024-03-17T04:05:04;6.78;77.23
84090;SHT35;74178;52.136;5.424;2024-03-17T04:07:35;6.79;77.03
84090;SHT35;74178;52.136;5.424;2024-03-17T04:10:06;6.79;77.37
84090;SHT35;74178;52.136;5.424;2024-03-17T04:12:36;6.80;77.06
84090;SHT35;74178;52.136;5.424;2024-03-17T04:15:07;6.81;76.89
84090;SHT35;74178;52.136;5.424;2024-03-17T04:17:41;6.82;77.03
84090;SHT35;74178;52.136;5.424;2024-03-17T04:20:12;6.83;77.17
84090;SHT35;74178;52.136;5.424;2024-03-17T04:22:42;6.82;76.74
84090;SHT35;74178;52.136;5.424;2024-03-17T04:25:13;6.82;76.67
84090;SHT35;74178;52.136;5.424;2024-03-17T04:27:43;6.82;76.97
84090;SHT35;74178;52.136;5.424;2024-03-17T04:30:13;6.80;77.11
84090;SHT35;74178;52.136;5.424;2024-03-17T04:32:44;6.79;77.03
84090;SHT35;74178;52.136;5.424;2024-03-17T04:35:14;6.78;76.98
84090;SHT35;74178;52.136;5.424;2024-03-17T04:37:44;6.78;76.89
84090;SHT35;74178;52.136;5.424;2024-03-17T04:40:14;6.77;76.81
84090;SHT35;74178;52.136;5.424;2024-03-17T04:42:44;6.75;76.82
84090;SHT35;74178;52.136;5.424;2024-03-17T04:45:15;6.74;76.90
84090;SHT35;74178;52.136;5.424;2024-03-17T04:47:45;6.71;77.09
84090;SHT35;74178;52.136;5.424;2024-03-17T04:50:15;6.68;77.57
84090;SHT35;74178;52.136;5.424;2024-03-17T04:52:46;6.67;77.47
84090;SHT35;74178;52.136;5.424;2024-03-17T04:55:16;6.65;78.01
84090;SHT35;74178;52.136;5.424;2024-03-17T04:57:47;6.63;77.88
84090;SHT35;74178;52.136;5.424;2024-03-17T05:00:17;6.63;77.84
84090;SHT35;74178;52.136;5.424;2024-03-17T05:02:48;6.63;78.07
84090;SHT35;74178;52.136;5.424;2024-03-17T05:05:18;6.65;77.84
84090;SHT35;74178;52.136;5.424;2024-03-17T05:07:51;6.67;78.06
84090;SHT35;74178;52.136;5.424;2024-03-17T05:10:21;6.69;78.09
84090;SHT35;74178;52.136;5.424;2024-03-17T05:12:51;6.70;77.78
84090;SHT35;74178;52.136;5.424;2024-03-17T05:15:23;6.74;77.77
84090;SHT35;74178;52.136;5.424;2024-03-17T05:17:53;6.76;77.81
84090;SHT35;74178;52.136;5.424;2024-03-17T05:20:24;6.77;77.78
84090;SHT35;74178;52.136;5.424;2024-03-17T05:22:54;6.78;77.85
84090;SHT35;74178;52.136;5.424;2024-03-17T05:25:24;6.78;77.90
84090;SHT35;74178;52.136;5.424;2024-03-17T05:27:55;6.79;77.71
84090;SHT35;74178;52.136;5.424;2024-03-17T05:30:25;6.79;77.80
84090;SHT35;74178;52.136;5.424;2024-03-17T05:32:57;6.79;77.96
84090;SHT35;74178;52.136;5.424;2024-03-17T05:35:27;6.78;77.91
84090;SHT35;74178;52.136;5.424;2024-03-17T05:37:57;6.78;78.07
84090;SHT35;74178;52.136;5.424;2024-03-17T05:40:28;6.79;77.93
84090;SHT35;74178;52.136;5.424;2024-03-17T05:43:01;6.80;78.08
84090;SHT35;74178;52.136;5.424;2024-03-17T05:45:32;6.82;77.79
84090;SHT35;74178;52.136;5.424;2024-03-17T05:48:02;6.82;78.26
84090;SHT35;74178;52.136;5.424;2024-03-17T05:50:34;6.83;78.07
84090;SHT35;74178;52.136;5.424;2024-03-17T05:53:04;6.83;78.03
84090;SHT35;74178;52.136;5.424;2024-03-17T05:55:38;6.82;77.86
84090;SHT35;74178;52.136;5.424;2024-03-17T05:58:11;6.83;78.04
84090;SHT35;74178;52.136;5.424;2024-03-17T06:00:41;6.84;78.25
84090;SHT35;74178;52.136;5.424;2024-03-17T06:03:12;6.86;77.78
84090;SHT35;74178;52.136;5.424;2024-03-17T06:05:43;6.87;77.86
84090;SHT35;74178;52.136;5.424;2024-03-17T06:08:14;6.90;77.80
84090;SHT35;74178;52.136;5.424;2024-03-17T06:10:47;6.93;77.71
84090;SHT35;74178;52.136;5.424;2024-03-17T06:13:17;6.94;77.53
84090;SHT35;74178;52.136;5.424;2024-03-17T06:15:47;6.95;77.55
84090;SHT35;74178;52.136;5.424;2024-03-17T06:18:17;6.98;78.00
84090;SHT35;74178;52.136;5.424;2024-03-17T06:20:48;6.99;77.62
84090;SHT35;74178;52.136;5.424;2024-03-17T06:23:18;7.02;77.46
84090;SHT35;74178;52.136;5.424;2024-03-17T06:25:49;7.05;77.27
84090;SHT35;74178;52.136;5.424;2024-03-17T06:28:19;7.08;77.50
84090;SHT35;74178;52.136;5.424;2024-03-17T06:30:57;7.10;77.05
84090;SHT35;74178;52.136;5.424;2024-03-17T06:33:29;7.15;77.24
84090;SHT35;74178;52.136;5.424;2024-03-17T06:36:04;7.21;77.10
84090;SHT35;74178;52.136;5.424;2024-03-17T06:38:34;7.29;77.19
84090;SHT35;74178;52.136;5.424;2024-03-17T06:41:04;7.40;76.47
84090;SHT35;74178;52.136;5.424;2024-03-17T06:43:35;7.51;76.71
84090;SHT35;74178;52.136;5.424;2024-03-17T06:46:06;7.60;75.70
84090;SHT35;74178;52.136;5.424;2024-03-17T06:48:37;7.68;75.68
84090;SHT35;74178;52.136;5.424;2024-03-17T06:51:08;7.76;75.23
84090;SHT35;74178;52.136;5.424;2024-03-17T06:53:38;7.86;75.99
84090;SHT35;74178;52.136;5.424;2024-03-17T06:56:08;7.94;74.92
84090;SHT35;74178;52.136;5.424;2024-03-17T06:58:38;8.03;74.57
84090;SHT35;74178;52.136;5.424;2024-03-17T07:01:08;8.09;74.23
84090;SHT35;74178;52.136;5.424;2024-03-17T07:03:39;8.15;73.83
84090;SHT35;74178;52.136;5.424;2024-03-17T07:06:10;8.21;73.93
84090;SHT35;74178;52.136;5.424;2024-03-17T07:08:40;8.29;73.88
84090;SHT35;74178;52.136;5.424;2024-03-17T07:11:10;8.38;73.02
84090;SHT35;74178;52.136;5.424;2024-03-17T07:13:41;8.44;73.11
84090;SHT35;74178;52.136;5.424;2024-03-17T07:16:11;8.52;73.17
84090;SHT35;74178;52.136;5.424;2024-03-17T07:18:41;8.61;72.89
84090;SHT35;74178;52.136;5.424;2024-03-17T07:21:11;8.69;72.46
84090;SHT35;74178;52.136;5.424;2024-03-17T07:23:41;8.80;72.37
84090;SHT35;74178;52.136;5.424;2024-03-17T07:26:11;8.91;72.13
84090;SHT35;74178;52.136;5.424;2024-03-17T07:28:42;9.03;71.57
84090;SHT35;74178;52.136;5.424;2024-03-17T07:31:12;9.18;71.31
84090;SHT35;74178;52.136;5.424;2024-03-17T07:33:43;9.39;70.87
84090;SHT35;74178;52.136;5.424;2024-03-17T07:36:13;9.59;69.94
84090;SHT35;74178;52.136;5.424;2024-03-17T07:38:43;9.84;69.77
84090;SHT35;74178;52.136;5.424;2024-03-17T07:41:14;10.06;68.44
84090;SHT35;74178;52.136;5.424;2024-03-17T07:43:44;10.29;68.25
84090;SHT35;74178;52.136;5.424;2024-03-17T07:46:14;10.49;66.27
84090;SHT35;74178;52.136;5.424;2024-03-17T07:48:45;10.66;66.19
84090;SHT35;74178;52.136;5.424;2024-03-17T07:51:16;10.81;65.62
84090;SHT35;74178;52.136;5.424;2024-03-17T07:53:47;10.96;65.38
84090;SHT35;74178;52.136;5.424;2024-03-17T07:56:19;11.08;65.21
84090;SHT35;74178;52.136;5.424;2024-03-17T07:58:49;11.18;64.25
84090;SHT35;74178;52.136;5.424;2024-03-17T08:01:19;11.25;63.96
84090;SHT35;74178;52.136;5.424;2024-03-17T08:03:50;11.33;64.29
84090;SHT35;74178;52.136;5.424;2024-03-17T08:06:23;11.39;64.07
84090;SHT35;74178;52.136;5.424;2024-03-17T08:08:53;11.44;63.95
84090;SHT35;74178;52.136;5.424;2024-03-17T08:11:24;11.51;63.69
84090;SHT35;74178;52.136;5.424;2024-03-17T08:13:55;11.54;62.76
84090;SHT35;74178;52.136;5.424;2024-03-17T08:16:25;11.56;63.17
84090;SHT35;74178;52.136;5.424;2024-03-17T08:18:58;11.54;63.19
84090;SHT35;74178;52.136;5.424;2024-03-17T08:21:28;11.52;63.97
84090;SHT35;74178;52.136;5.424;2024-03-17T08:23:59;11.47;63.53
84090;SHT35;74178;52.136;5.424;2024-03-17T08:26:30;11.41;63.67
84090;SHT35;74178;52.136;5.424;2024-03-17T08:29:00;11.35;63.90
84090;SHT35;74178;52.136;5.424;2024-03-17T08:31:30;11.31;64.14
84090;SHT35;74178;52.136;5.424;2024-03-17T08:34:00;11.26;63.98
84090;SHT35;74178;52.136;5.424;2024-03-17T08:36:30;11.21;64.39
84090;SHT35;74178;52.136;5.424;2024-03-17T08:39:00;11.16;64.40
84090;SHT35;74178;52.136;5.424;2024-03-17T08:41:30;11.12;65.37
84090;SHT35;74178;52.136;5.424;2024-03-17T08:44:01;11.06;65.19
84090;SHT35;74178;52.136;5.424;2024-03-17T08:46:32;11.03;65.34
84090;SHT35;74178;52.136;5.424;2024-03-17T08:49:02;11.00;65.71
84090;SHT35;74178;52.136;5.424;2024-03-17T08:51:33;10.98;65.94
84090;SHT35;74178;52.136;5.424;2024-03-17T08:54:03;11.01;66.39
84090;SHT35;74178;52.136;5.424;2024-03-17T08:56:33;11.06;66.31
84090;SHT35;74178;52.136;5.424;2024-03-17T08:59:04;11.14;66.58
84090;SHT35;74178;52.136;5.424;2024-03-17T09:01:35;11.21;66.37
84090;SHT35;74178;52.136;5.424;2024-03-17T09:04:05;11.28;66.57
84090;SHT35;74178;52.136;5.424;2024-03-17T09:06:35;11.38;65.93
84090;SHT35;74178;52.136;5.424;2024-03-17T09:09:06;11.48;66.01
84090;SHT35;74178;52.136;5.424;2024-03-17T09:11:36;11.59;65.01
84090;SHT35;74178;52.136;5.424;2024-03-17T09:14:07;11.72;65.18
84090;SHT35;74178;52.136;5.424;2024-03-17T09:16:37;11.86;64.40
84090;SHT35;74178;52.136;5.424;2024-03-17T09:19:09;11.97;63.70
84090;SHT35;74178;52.136;5.424;2024-03-17T09:21:39;12.05;63.40
84090;SHT35;74178;52.136;5.424;2024-03-17T09:24:09;12.13;63.38
84090;SHT35;74178;52.136;5.424;2024-03-17T09:26:39;12.18;63.11
84090;SHT35;74178;52.136;5.424;2024-03-17T09:29:09;12.23;63.09
84090;SHT35;74178;52.136;5.424;2024-03-17T09:31:39;12.26;62.91
84090;SHT35;74178;52.136;5.424;2024-03-17T09:34:10;12.31;62.85
84090;SHT35;74178;52.136;5.424;2024-03-17T09:36:40;12.34;62.37
84090;SHT35;74178;52.136;5.424;2024-03-17T09:39:11;12.36;62.05
84090;SHT35;74178;52.136;5.424;2024-03-17T09:41:42;12.38;62.78
84090;SHT35;74178;52.136;5.424;2024-03-17T09:44:13;12.42;63.54
84090;SHT35;74178;52.136;5.424;2024-03-17T09:46:43;12.46;62.99
84090;SHT35;74178;52.136;5.424;2024-03-17T09:49:15;12.51;63.13
84090;SHT35;74178;52.136;5.424;2024-03-17T09:51:49;12.57;61.83
84090;SHT35;74178;52.136;5.424;2024-03-17T09:54:24;12.62;61.98
84090;SHT35;74178;52.136;5.424;2024-03-17T09:56:54;12.67;61.87
84090;SHT35;74178;52.136;5.424;2024-03-17T09:59:24;12.74;62.13
84090;SHT35;74178;52.136;5.424;2024-03-17T10:01:54;12.83;62.56
84090;SHT35;74178;52.136;5.424;2024-03-17T10:04:33;12.97;62.44
84090;SHT35;74178;52.136;5.424;2024-03-17T10:07:03;13.17;60.73
84090;SHT35;74178;52.136;5.424;2024-03-17T10:09:34;13.35;60.31
84090;SHT35;74178;52.136;5.424;2024-03-17T10:12:04;13.55;59.26
84090;SHT35;74178;52.136;5.424;2024-03-17T10:14:38;13.72;59.73
84090;SHT35;74178;52.136;5.424;2024-03-17T10:17:09;13.90;60.77
84090;SHT35;74178;52.136;5.424;2024-03-17T10:19:39;14.07;59.47
84090;SHT35;74178;52.136;5.424;2024-03-17T10:22:12;14.17;58.60
84090;SHT35;74178;52.136;5.424;2024-03-17T10:24:42;14.22;58.06
84090;SHT35;74178;52.136;5.424;2024-03-17T10:27:12;14.27;58.99
84090;SHT35;74178;52.136;5.424;2024-03-17T10:29:43;14.34;59.45
84090;SHT35;74178;52.136;5.424;2024-03-17T10:32:16;14.39;58.73
84090;SHT35;74178;52.136;5.424;2024-03-17T10:34:46;14.45;58.79
84090;SHT35;74178;52.136;5.424;2024-03-17T10:37:20;14.59;58.42
84090;SHT35;74178;52.136;5.424;2024-03-17T10:39:54;14.95;60.08
84090;SHT35;74178;52.136;5.424;2024-03-17T10:42:28;15.38;57.70
84090;SHT35;74178;52.136;5.424;2024-03-17T10:45:09;15.84;55.65
84090;SHT35;74178;52.136;5.424;2024-03-17T10:47:46;16.09;55.34
84090;SHT35;74178;52.136;5.424;2024-03-17T10:50:20;16.28;53.84
84090;SHT35;74178;52.136;5.424;2024-03-17T10:52:57;16.48;52.91
84090;SHT35;74178;52.136;5.424;2024-03-17T10:55:32;16.63;53.99
84090;SHT35;74178;52.136;5.424;2024-03-17T10:58:23;16.76;53.46
84090;SHT35;74178;52.136;5.424;2024-03-17T11:01:01;16.97;53.53
84090;SHT35;74178;52.136;5.424;2024-03-17T11:03:32;17.09;53.25
84090;SHT35;74178;52.136;5.424;2024-03-17T11:06:05;17.21;52.61
84090;SHT35;74178;52.136;5.424;2024-03-17T11:08:37;17.32;52.35
84090;SHT35;74178;52.136;5.424;2024-03-17T11:11:10;17.48;52.62
84090;SHT35;74178;52.136;5.424;2024-03-17T11:13:42;17.71;51.53
84090;SHT35;74178;52.136;5.424;2024-03-17T11:16:26;17.89;50.36
84090;SHT35;74178;52.136;5.424;2024-03-17T11:19:06;17.95;50.49
84090;SHT35;74178;52.136;5.424;2024-03-17T11:21:36;17.93;50.61
84090;SHT35;74178;52.136;5.424;2024-03-17T11:24:20;17.88;50.94
84090;SHT35;74178;52.136;5.424;2024-03-17T11:26:50;17.79;50.41
84090;SHT35;74178;52.136;5.424;2024-03-17T11:29:28;17.68;50.08
84090;SHT35;74178;52.136;5.424;2024-03-17T11:32:00;17.55;50.47
84090;SHT35;74178;52.136;5.424;2024-03-17T11:34:35;17.47;51.52
84090;SHT35;74178;52.136;5.424;2024-03-17T11:37:41;17.33;51.08
84090;SHT35;74178;52.136;5.424;2024-03-17T11:40:25;17.04;51.17
84090;SHT35;74178;52.136;5.424;2024-03-17T11:43:02;16.72;52.41
84090;SHT35;74178;52.136;5.424;2024-03-17T11:45:34;16.52;53.93
84090;SHT35;74178;52.136;5.424;2024-03-17T11:48:13;16.41;53.22
84090;SHT35;74178;52.136;5.424;2024-03-17T11:50:44;16.30;54.32
84090;SHT35;74178;52.136;5.424;2024-03-17T11:53:15;16.22;53.93
84090;SHT35;74178;52.136;5.424;2024-03-17T11:55:49;16.07;55.12
84090;SHT35;74178;52.136;5.424;2024-03-17T11:58:19;15.87;54.03
84090;SHT35;74178;52.136;5.424;2024-03-17T12:00:53;15.64;54.24
84090;SHT35;74178;52.136;5.424;2024-03-17T12:03:23;15.39;56.00
84090;SHT35;74178;52.136;5.424;2024-03-17T12:05:53;15.22;56.24
84090;SHT35;74178;52.136;5.424;2024-03-17T12:08:24;15.09;56.66
84090;SHT35;74178;52.136;5.424;2024-03-17T12:10:54;14.94;57.13
84090;SHT35;74178;52.136;5.424;2024-03-17T12:13:33;14.79;57.43
84090;SHT35;74178;52.136;5.424;2024-03-17T12:16:13;14.64;58.04
84090;SHT35;74178;52.136;5.424;2024-03-17T12:18:43;14.53;57.82
84090;SHT35;74178;52.136;5.424;2024-03-17T12:21:14;14.47;58.92
84090;SHT35;74178;52.136;5.424;2024-03-17T12:23:45;14.42;58.56
84090;SHT35;74178;52.136;5.424;2024-03-17T12:26:16;14.38;58.82
84090;SHT35;74178;52.136;5.424;2024-03-17T12:28:47;14.38;59.54
84090;SHT35;74178;52.136;5.424;2024-03-17T12:31:17;14.41;59.64
84090;SHT35;74178;52.136;5.424;2024-03-17T12:33:48;14.48;59.12
84090;SHT35;74178;52.136;5.424;2024-03-17T12:36:18;14.55;58.92
84090;SHT35;74178;52.136;5.424;2024-03-17T12:38:48;14.63;59.82
84090;SHT35;74178;52.136;5.424;2024-03-17T12:41:18;14.71;59.18
84090;SHT35;74178;52.136;5.424;2024-03-17T12:43:49;14.75;58.85
84090;SHT35;74178;52.136;5.424;2024-03-17T12:46:20;14.76;57.82
84090;SHT35;74178;52.136;5.424;2024-03-17T12:48:59;14.76;57.90
84090;SHT35;74178;52.136;5.424;2024-03-17T12:51:29;14.75;58.83
84090;SHT35;74178;52.136;5.424;2024-03-17T12:54:15;14.74;58.43
84090;SHT35;74178;52.136;5.424;2024-03-17T12:56:45;14.77;58.42
84090;SHT35;74178;52.136;5.424;2024-03-17T12:59:42;14.78;58.64
84090;SHT35;74178;52.136;5.424;2024-03-17T13:02:31;14.80;58.30
84090;SHT35;74178;52.136;5.424;2024-03-17T13:05:13;14.81;58.37
84090;SHT35;74178;52.136;5.424;2024-03-17T13:07:45;14.80;58.27
84090;SHT35;74178;52.136;5.424;2024-03-17T13:10:17;14.78;58.45
84090;SHT35;74178;52.136;5.424;2024-03-17T13:12:57;14.76;58.07
84090;SHT35;74178;52.136;5.424;2024-03-17T13:15:30;14.73;58.61
84090;SHT35;74178;52.136;5.424;2024-03-17T13:18:00;14.70;59.03
84090;SHT35;74178;52.136;5.424;2024-03-17T13:20:32;14.68;59.28
84090;SHT35;74178;52.136;5.424;2024-03-17T13:23:02;14.67;59.42
84090;SHT35;74178;52.136;5.424;2024-03-17T13:25:32;14.66;59.63
84090;SHT35;74178;52.136;5.424;2024-03-17T13:28:05;14.67;59.24
84090;SHT35;74178;52.136;5.424;2024-03-17T13:30:36;14.68;59.30
84090;SHT35;74178;52.136;5.424;2024-03-17T13:33:07;14.70;59.77
84090;SHT35;74178;52.136;5.424;2024-03-17T13:35:40;14.72;59.88
84090;SHT35;74178;52.136;5.424;2024-03-17T13:38:10;14.73;59.68
84090;SHT35;74178;52.136;5.424;2024-03-17T13:40:41;14.76;60.38
84090;SHT35;74178;52.136;5.424;2024-03-17T13:43:11;14.77;59.66
84090;SHT35;74178;52.136;5.424;2024-03-17T13:45:42;14.78;59.61
84090;SHT35;74178;52.136;5.424;2024-03-17T13:48:15;14.77;60.02
84090;SHT35;74178;52.136;5.424;2024-03-17T13:50:46;14.78;60.24
84090;SHT35;74178;52.136;5.424;2024-03-17T13:53:17;14.79;60.73
84090;SHT35;74178;52.136;5.424;2024-03-17T13:55:48;14.80;60.73
84090;SHT35;74178;52.136;5.424;2024-03-17T13:58:19;14.82;60.02
84090;SHT35;74178;52.136;5.424;2024-03-17T14:00:51;14.82;60.22
84090;SHT35;74178;52.136;5.424;2024-03-17T14:03:21;14.82;60.51
84090;SHT35;74178;52.136;5.424;2024-03-17T14:05:51;14.83;60.40
84090;SHT35;74178;52.136;5.424;2024-03-17T14:08:22;14.85;60.09
84090;SHT35;74178;52.136;5.424;2024-03-17T14:10:53;14.85;60.04
84090;SHT35;74178;52.136;5.424;2024-03-17T14:13:23;14.87;59.80
84090;SHT35;74178;52.136;5.424;2024-03-17T14:15:57;14.88;59.72
84090;SHT35;74178;52.136;5.424;2024-03-17T14:18:27;14.93;60.22
84090;SHT35;74178;52.136;5.424;2024-03-17T14:20:58;14.97;59.80
84090;SHT35;74178;52.136;5.424;2024-03-17T14:23:28;15.02;60.33
84090;SHT35;74178;52.136;5.424;2024-03-17T14:25:59;15.11;60.68
84090;SHT35;74178;52.136;5.424;2024-03-17T14:28:29;15.17;59.79
84090;SHT35;74178;52.136;5.424;2024-03-17T14:30:59;15.22;59.43
84090;SHT35;74178;52.136;5.424;2024-03-17T14:33:29;15.24;59.25
84090;SHT35;74178;52.136;5.424;2024-03-17T14:36:00;15.24;59.06
84090;SHT35;74178;52.136;5.424;2024-03-17T14:38:30;15.23;59.41
84090;SHT35;74178;52.136;5.424;2024-03-17T14:41:00;15.27;60.74
84090;SHT35;74178;52.136;5.424;2024-03-17T14:43:32;15.33;59.64
84090;SHT35;74178;52.136;5.424;2024-03-17T14:46:06;15.37;59.29
84090;SHT35;74178;52.136;5.424;2024-03-17T14:48:38;15.39;58.91
84090;SHT35;74178;52.136;5.424;2024-03-17T14:51:11;15.43;59.73
84090;SHT35;74178;52.136;5.424;2024-03-17T14:53:41;15.45;59.20
84090;SHT35;74178;52.136;5.424;2024-03-17T14:56:19;15.46;59.34
84090;SHT35;74178;52.136;5.424;2024-03-17T14:58:49;15.52;60.45
84090;SHT35;74178;52.136;5.424;2024-03-17T15:01:19;15.56;59.07
84090;SHT35;74178;52.136;5.424;2024-03-17T15:03:49;15.59;59.12
84090;SHT35;74178;52.136;5.424;2024-03-17T15:06:19;15.61;58.74
84090;SHT35;74178;52.136;5.424;2024-03-17T15:08:50;15.62;58.41
84090;SHT35;74178;52.136;5.424;2024-03-17T15:11:20;15.61;58.41
84090;SHT35;74178;52.136;5.424;2024-03-17T15:13:50;15.58;58.84
84090;SHT35;74178;52.136;5.424;2024-03-17T15:16:20;15.53;58.32
84090;SHT35;74178;52.136;5.424;2024-03-17T15:18:51;15.44;57.86
84090;SHT35;74178;52.136;5.424;2024-03-17T15:21:21;15.32;58.66
84090;SHT35;74178;52.136;5.424;2024-03-17T15:23:51;15.18;59.15
84090;SHT35;74178;52.136;5.424;2024-03-17T15:26:21;15.06;59.53
84090;SHT35;74178;52.136;5.424;2024-03-17T15:28:51;14.93;60.02
84090;SHT35;74178;52.136;5.424;2024-03-17T15:31:21;14.83;60.39
84090;SHT35;74178;52.136;5.424;2024-03-17T15:33:51;14.74;60.59
84090;SHT35;74178;52.136;5.424;2024-03-17T15:36:24;14.68;61.15
84090;SHT35;74178;52.136;5.424;2024-03-17T15:38:54;14.62;61.47
84090;SHT35;74178;52.136;5.424;2024-03-17T15:41:24;14.59;62.40
84090;SHT35;74178;52.136;5.424;2024-03-17T15:43:54;14.57;61.69
84090;SHT35;74178;52.136;5.424;2024-03-17T15:46:24;14.54;62.36
84090;SHT35;74178;52.136;5.424;2024-03-17T15:48:54;14.53;62.65
84090;SHT35;74178;52.136;5.424;2024-03-17T15:51:26;14.52;62.19
84090;SHT35;74178;52.136;5.424;2024-03-17T15:53:56;14.52;62.78
84090;SHT35;74178;52.136;5.424;2024-03-17T15:56:26;14.51;62.47
84090;SHT35;74178;52.136;5.424;2024-03-17T15:58:56;14.48;62.44
84090;SHT35;74178;52.136;5.424;2024-03-17T16:01:27;14.44;62.56
84090;SHT35;74178;52.136;5.424;2024-03-17T16:03:57;14.41;62.99